Time;durP1;ratioP1;P1;durP2;ratioP2;P2;SDS_P1;SDS_P2;PMS_P1;PMS_P2;Temp;Humidity;BMP_temperature;BMP_pressure;BME280_temperature;BME280_humidity;BME280_pressure;Samples;Min_cycle;Max_cycle;Signal;HPM_P1;HPM_P2
2022/03/03 00:00:44;;;;;;;23.90;5.30;;;22.40;95.00;;;;;;4930527;29;20255;-78
2022/03/03 00:03:11;;;;;;;20.67;5.33;;;22.50;94.80;;;;;;4934965;29;20323;-79
2022/03/03 00:05:38;;;;;;;27.00;5.50;;;22.60;94.70;;;;;;4936112;29;20184;-81
2022/03/03 00:08:06;;;;;;;26.57;5.83;;;22.60;94.50;;;;;;4938106;29;20187;-77
2022/03/03 00:10:33;;;;;;;23.97;4.87;;;22.60;94.40;;;;;;4938381;29;20279;-88
2022/03/03 00:13:01;;;;;;;21.67;5.37;;;22.70;94.60;;;;;;4939484;29;20187;-76
2022/03/03 00:15:30;;;;;;;22.90;4.27;;;22.80;94.30;;;;;;4933613;29;20546;-75
2022/03/03 00:17:58;;;;;;;21.73;5.10;;;22.80;93.30;;;;;;4936880;29;20617;-78
2022/03/03 00:20:25;;;;;;;27.27;4.60;;;23.00;93.70;;;;;;4937603;29;20192;-79
2022/03/03 00:22:53;;;;;;;18.47;3.37;;;23.20;93.20;;;;;;4936938;29;20180;-75
2022/03/03 00:25:20;;;;;;;22.77;3.63;;;23.30;92.40;;;;;;4933807;29;20647;-75
2022/03/03 00:27:48;;;;;;;18.93;4.00;;;23.30;91.60;;;;;;4936513;29;20673;-75
2022/03/03 00:30:15;;;;;;;19.73;4.20;;;23.40;90.80;;;;;;4934555;29;20563;-75
2022/03/03 00:32:43;;;;;;;18.77;3.30;;;23.50;90.50;;;;;;4937617;29;20195;-75
2022/03/03 00:35:12;;;;;;;16.63;4.33;;;23.70;90.90;;;;;;4940343;29;20186;-76
2022/03/03 00:37:40;;;;;;;19.40;3.80;;;23.50;90.70;;;;;;4938234;29;20215;-85
2022/03/03 00:40:08;;;;;;;20.20;3.40;;;23.30;91.50;;;;;;4938069;29;20199;-79
2022/03/03 00:42:35;;;;;;;19.37;4.07;;;23.30;91.90;;;;;;4937102;29;20219;-80
2022/03/03 00:45:03;;;;;;;24.90;3.93;;;23.40;92.20;;;;;;4937440;29;20224;-78
2022/03/03 00:47:31;;;;;;;15.07;2.73;;;23.40;91.70;;;;;;4937174;29;20224;-75
2022/03/03 00:49:58;;;;;;;21.67;4.00;;;23.50;91.30;;;;;;4937246;29;20180;-77
2022/03/03 00:52:26;;;;;;;14.50;3.10;;;23.40;91.70;;;;;;4934637;29;20251;-76
2022/03/03 00:54:53;;;;;;;18.20;3.60;;;23.40;91.40;;;;;;4932404;29;20223;-74
2022/03/03 00:57:20;;;;;;;18.37;2.77;;;23.50;91.20;;;;;;4919837;29;20336;-77
2022/03/03 00:59:48;;;;;;;15.60;2.70;;;23.60;91.10;;;;;;4936750;29;20582;-77
2022/03/03 01:02:15;;;;;;;22.50;5.20;;;23.90;90.40;;;;;;4937173;29;20561;-77
2022/03/03 01:04:43;;;;;;;20.73;3.50;;;24.00;89.50;;;;;;4936257;29;20184;-75
2022/03/03 01:07:10;;;;;;;20.10;4.17;;;24.20;89.50;;;;;;4936279;29;20235;-76
2022/03/03 01:09:37;;;;;;;15.20;4.27;;;24.30;88.70;;;;;;4936810;29;20701;-76
2022/03/03 01:12:05;;;;;;;16.70;3.30;;;24.60;87.40;;;;;;4936980;29;20195;-83
2022/03/03 01:14:32;;;;;;;12.90;2.53;;;24.80;85.70;;;;;;4936571;29;20199;-79
2022/03/03 01:17:00;;;;;;;14.13;5.53;;;24.70;86.30;;;;;;4918681;29;20228;-76
2022/03/03 01:19:27;;;;;;;12.63;2.70;;;24.70;87.40;;;;;;4935977;29;20207;-76
2022/03/03 01:21:55;;;;;;;18.03;4.30;;;24.70;86.80;;;;;;4934004;29;20188;-75
2022/03/03 01:24:22;;;;;;;15.13;3.37;;;24.30;86.40;;;;;;4935051;29;20192;-77
2022/03/03 01:26:49;;;;;;;12.53;2.43;;;24.20;88.10;;;;;;4936808;29;20180;-77
2022/03/03 01:29:17;;;;;;;17.30;2.83;;;24.10;89.00;;;;;;4933203;29;20184;-76
2022/03/03 01:31:44;;;;;;;13.93;2.23;;;23.80;88.80;;;;;;4934136;29;20635;-75
2022/03/03 01:34:12;;;;;;;13.10;3.03;;;23.80;89.20;;;;;;4935204;29;20199;-77
2022/03/03 01:36:39;;;;;;;15.77;2.20;;;23.80;89.20;;;;;;4933326;29;20286;-76
2022/03/03 01:39:07;;;;;;;20.97;7.47;;;23.90;87.50;;;;;;4935386;29;20212;-74
2022/03/03 01:41:35;;;;;;;16.10;2.93;;;24.20;87.60;;;;;;4935999;29;20194;-75
2022/03/03 01:44:03;;;;;;;12.30;2.60;;;24.30;86.70;;;;;;4935994;29;20326;-73
2022/03/03 01:46:31;;;;;;;6.43;1.70;;;24.30;85.10;;;;;;4933117;29;20661;-75
2022/03/03 01:48:58;;;;;;;10.00;2.00;;;24.30;84.80;;;;;;4933757;29;20196;-74
2022/03/03 01:51:26;;;;;;;12.63;2.33;;;24.10;85.60;;;;;;4936009;29;20195;-77
2022/03/03 01:53:53;;;;;;;12.73;2.00;;;23.80;86.80;;;;;;4935219;29;20271;-76
2022/03/03 01:56:21;;;;;;;13.00;2.20;;;23.70;87.90;;;;;;4934410;29;20218;-74
2022/03/03 01:58:49;;;;;;;11.73;2.00;;;23.70;89.40;;;;;;4935885;29;20283;-75
2022/03/03 02:01:16;;;;;;;8.10;2.03;;;23.60;90.00;;;;;;4935645;29;20188;-76
2022/03/03 02:03:44;;;;;;;16.23;2.70;;;23.80;90.60;;;;;;4935334;29;20176;-76
2022/03/03 02:06:11;;;;;;;12.50;2.33;;;24.00;89.60;;;;;;4935042;29;20210;-76
2022/03/03 02:08:38;;;;;;;16.47;2.93;;;24.30;88.30;;;;;;4935001;29;20188;-78
2022/03/03 02:11:06;;;;;;;17.73;2.90;;;24.40;88.20;;;;;;4932701;29;20597;-78
2022/03/03 02:13:34;;;;;;;21.67;3.67;;;24.60;87.00;;;;;;4935487;29;20572;-75
2022/03/03 02:16:01;;;;;;;19.37;3.63;;;24.80;87.60;;;;;;4934017;29;20283;-80
2022/03/03 02:18:29;;;;;;;16.37;3.10;;;24.80;85.80;;;;;;4933380;29;20694;-77
2022/03/03 02:20:56;;;;;;;23.33;3.60;;;24.70;86.50;;;;;;4933169;29;20223;-73
2022/03/03 02:23:23;;;;;;;12.70;2.57;;;24.70;86.50;;;;;;4934488;29;20269;-74
2022/03/03 02:25:51;;;;;;;14.20;2.40;;;24.80;86.00;;;;;;4934431;29;20219;-73
2022/03/03 02:28:18;;;;;;;14.83;2.67;;;25.10;85.30;;;;;;4933537;29;20187;-75
2022/03/03 02:30:45;;;;;;;13.20;2.50;;;25.00;85.10;;;;;;4934872;29;20206;-77
2022/03/03 02:33:13;;;;;;;10.97;2.10;;;25.10;85.60;;;;;;4934536;29;20240;-75
2022/03/03 02:35:40;;;;;;;13.37;3.47;;;25.40;84.70;;;;;;4935115;29;20194;-74
2022/03/03 02:38:07;;;;;;;9.63;2.20;;;25.40;83.80;;;;;;4934987;29;20219;-76
2022/03/03 02:40:35;;;;;;;10.60;2.40;;;25.30;83.40;;;;;;4933371;29;20180;-75
2022/03/03 02:43:02;;;;;;;11.40;2.40;;;25.20;83.20;;;;;;4933983;29;20190;-75
2022/03/03 02:45:29;;;;;;;16.43;3.30;;;25.00;83.20;;;;;;4922052;29;20180;-74
2022/03/03 02:47:57;;;;;;;13.13;2.60;;;24.80;84.30;;;;;;4934086;29;20224;-75
2022/03/03 02:50:25;;;;;;;11.67;2.43;;;24.70;84.40;;;;;;4933517;29;20193;-76
2022/03/03 02:52:52;;;;;;;14.83;2.80;;;25.00;84.20;;;;;;4934716;29;20238;-75
2022/03/03 02:55:20;;;;;;;12.63;2.50;;;25.30;82.80;;;;;;4934110;29;20196;-76
2022/03/03 02:57:54;;;;;;;8.93;2.23;;;25.40;82.70;;;;;;4932515;29;20243;-77
2022/03/03 03:00:27;;;;;;;11.73;3.43;;;24.50;85.80;;;;;;4933873;29;20183;-75
2022/03/03 03:02:55;;;;;;;14.80;3.00;;;24.00;87.00;;;;;;4933708;29;20195;-76
2022/03/03 03:05:23;;;;;;;7.50;1.63;;;24.00;89.70;;;;;;4932211;29;20234;-76
2022/03/03 03:07:51;;;;;;;5.37;1.50;;;23.90;88.00;;;;;;4934687;29;20196;-74
2022/03/03 03:10:19;;;;;;;8.00;1.80;;;23.90;89.30;;;;;;4931260;29;20187;-76
2022/03/03 03:12:46;;;;;;;11.33;2.53;;;23.90;89.30;;;;;;4934749;29;20198;-74
2022/03/03 03:15:13;;;;;;;11.20;2.10;;;24.00;89.60;;;;;;4932460;29;20628;-78
2022/03/03 03:17:40;;;;;;;13.03;2.33;;;24.10;89.70;;;;;;4933863;29;20207;-74
2022/03/03 03:20:09;;;;;;;17.80;2.80;;;24.20;89.70;;;;;;4933312;29;20681;-74
2022/03/03 03:22:37;;;;;;;15.03;3.07;;;24.10;90.10;;;;;;4933961;29;20655;-79
2022/03/03 03:25:08;;;;;;;12.60;2.70;;;24.10;90.00;;;;;;4933695;29;20208;-80
2022/03/03 03:27:36;;;;;;;16.50;3.03;;;23.90;89.80;;;;;;4932755;29;20203;-75
2022/03/03 03:30:06;;;;;;;19.37;3.57;;;24.00;90.40;;;;;;4933074;29;20191;-76
2022/03/03 03:32:34;;;;;;;16.40;3.30;;;24.30;90.10;;;;;;4931664;29;20184;-75
2022/03/03 03:35:02;;;;;;;16.30;3.33;;;24.50;88.80;;;;;;4917510;29;20196;-74
2022/03/03 03:37:29;;;;;;;18.90;4.17;;;24.30;88.80;;;;;;4927967;29;20598;-76
2022/03/03 03:39:57;;;;;;;24.43;3.63;;;24.50;89.20;;;;;;4932101;29;20183;-75
2022/03/03 03:42:24;;;;;;;16.77;3.63;;;24.50;88.10;;;;;;4932567;29;20191;-75
2022/03/03 03:44:51;;;;;;;20.90;3.97;;;24.60;88.90;;;;;;4934182;29;20179;-74
2022/03/03 03:47:19;;;;;;;19.57;4.37;;;24.60;88.20;;;;;;4933290;29;20226;-74
2022/03/03 03:49:46;;;;;;;23.87;6.50;;;24.70;88.00;;;;;;4932369;29;20270;-74
2022/03/03 03:52:13;;;;;;;14.63;3.27;;;24.80;87.90;;;;;;4934012;29;20191;-76
2022/03/03 03:54:41;;;;;;;12.70;2.63;;;24.50;86.30;;;;;;4931372;29;20521;-75
2022/03/03 03:57:08;;;;;;;11.13;2.57;;;24.40;87.60;;;;;;4932224;29;20214;-78
2022/03/03 03:59:36;;;;;;;12.00;2.77;;;24.90;86.70;;;;;;4932241;29;20190;-80
2022/03/03 04:02:03;;;;;;;11.97;2.20;;;25.10;85.40;;;;;;4932327;29;20184;-75
2022/03/03 04:04:30;;;;;;;14.13;3.37;;;25.00;84.60;;;;;;4932952;29;20180;-74
2022/03/03 04:06:58;;;;;;;16.57;4.73;;;24.60;85.90;;;;;;4921249;29;20207;-77
2022/03/03 04:09:25;;;;;;;16.73;5.10;;;24.60;86.90;;;;;;4933973;29;20192;-74
2022/03/03 04:11:52;;;;;;;12.67;3.20;;;25.00;86.60;;;;;;4933608;29;20175;-75
2022/03/03 04:14:20;;;;;;;16.73;2.80;;;25.70;84.90;;;;;;4935016;29;20194;-76
2022/03/03 04:16:47;;;;;;;12.97;2.57;;;25.80;82.40;;;;;;4930223;29;20212;-80
2022/03/03 04:19:14;;;;;;;11.10;2.43;;;25.60;82.50;;;;;;4934220;29;20196;-75
2022/03/03 04:21:42;;;;;;;11.67;2.43;;;24.80;84.20;;;;;;4934468;29;20190;-77
2022/03/03 04:24:10;;;;;;;11.93;2.03;;;24.70;85.10;;;;;;4933838;29;20260;-77
2022/03/03 04:26:38;;;;;;;10.07;2.13;;;24.50;86.30;;;;;;4933732;29;20670;-75
2022/03/03 04:29:05;;;;;;;11.50;2.63;;;24.40;87.50;;;;;;4932333;29;20572;-73
2022/03/03 04:31:33;;;;;;;22.17;3.20;;;24.50;86.90;;;;;;4931015;29;20191;-75
2022/03/03 04:34:01;;;;;;;18.37;3.03;;;24.30;87.00;;;;;;4914209;29;20184;-74
2022/03/03 04:36:29;;;;;;;13.80;2.70;;;24.30;88.10;;;;;;4933398;29;20208;-75
2022/03/03 04:38:56;;;;;;;14.83;2.63;;;24.50;87.40;;;;;;4934824;29;20215;-85
2022/03/03 04:41:23;;;;;;;14.70;2.73;;;24.80;85.60;;;;;;4933200;29;20250;-75
2022/03/03 04:43:51;;;;;;;14.33;2.50;;;25.50;84.60;;;;;;4934174;29;20188;-75
2022/03/03 04:46:18;;;;;;;18.03;2.67;;;25.70;83.80;;;;;;4933419;29;20188;-76
2022/03/03 04:48:45;;;;;;;14.60;2.90;;;25.80;82.70;;;;;;4933858;29;20228;-73
2022/03/03 04:51:13;;;;;;;22.60;3.70;;;26.10;82.30;;;;;;4933218;29;20184;-76
2022/03/03 04:53:40;;;;;;;17.40;3.43;;;26.00;80.40;;;;;;4925639;29;20539;-73
2022/03/03 04:56:07;;;;;;;17.90;3.53;;;25.50;82.30;;;;;;4936916;29;20188;-74
2022/03/03 04:58:35;;;;;;;19.40;3.27;;;25.30;82.50;;;;;;4937207;29;20223;-75
2022/03/03 05:01:02;;;;;;;17.23;3.27;;;25.20;82.70;;;;;;4934753;29;20246;-76
2022/03/03 05:03:29;;;;;;;16.67;2.93;;;25.60;82.90;;;;;;4936377;29;20194;-73
2022/03/03 05:05:57;;;;;;;11.50;3.00;;;25.80;81.40;;;;;;4917967;29;20717;-82
2022/03/03 05:08:24;;;;;;;12.63;3.13;;;25.80;82.20;;;;;;4934359;29;20200;-74
2022/03/03 05:10:51;;;;;;;17.03;3.40;;;25.80;80.40;;;;;;4934316;29;20207;-73
2022/03/03 05:13:18;;;;;;;18.97;3.83;;;25.80;80.80;;;;;;4937455;29;20184;-74
2022/03/03 05:15:46;;;;;;;21.90;3.90;;;26.50;79.30;;;;;;4930602;29;20203;-74
2022/03/03 05:18:13;;;;;;;19.90;3.37;;;26.70;77.00;;;;;;4936274;29;20233;-75
2022/03/03 05:20:41;;;;;;;17.37;4.00;;;26.50;78.60;;;;;;4935630;29;20188;-73
2022/03/03 05:23:09;;;;;;;23.77;3.77;;;26.40;78.90;;;;;;4937253;29;20270;-87
2022/03/03 05:25:36;;;;;;;20.60;4.33;;;26.30;79.60;;;;;;4933430;29;20224;-75
2022/03/03 05:28:05;;;;;;;14.40;3.50;;;26.40;78.90;;;;;;4922799;29;20200;-71
2022/03/03 05:30:32;;;;;;;17.50;3.07;;;26.80;78.90;;;;;;4936415;29;20192;-79
2022/03/03 05:32:59;;;;;;;14.37;2.83;;;26.00;78.50;;;;;;4936559;29;20188;-74
2022/03/03 05:35:27;;;;;;;14.53;3.20;;;25.30;80.00;;;;;;4935222;29;20211;-78
2022/03/03 05:37:54;;;;;;;17.70;3.80;;;25.00;82.60;;;;;;4937139;29;20622;-75
2022/03/03 05:40:22;;;;;;;20.20;3.50;;;24.70;84.50;;;;;;4932811;29;20183;-76
2022/03/03 05:42:49;;;;;;;24.07;4.27;;;23.80;89.00;;;;;;4932882;29;20254;-76
2022/03/03 05:45:17;;;;;;;23.57;3.60;;;23.40;91.10;;;;;;4936765;29;20319;-73
2022/03/03 05:47:46;;;;;;;19.57;3.93;;;23.10;92.20;;;;;;4932084;29;20227;-75
2022/03/03 05:50:15;;;;;;;20.87;3.73;;;23.10;92.60;;;;;;4934007;29;20192;-75
2022/03/03 05:52:42;;;;;;;23.27;3.97;;;23.10;92.70;;;;;;4936404;29;20180;-74
2022/03/03 05:55:10;;;;;;;25.93;4.40;;;23.30;92.30;;;;;;4934519;29;20180;-79
2022/03/03 05:57:44;;;;;;;24.57;4.43;;;23.70;91.60;;;;;;4932026;29;20243;-74
2022/03/03 06:00:16;;;;;;;26.10;4.10;;;23.80;91.30;;;;;;4934790;29;20191;-78
2022/03/03 06:02:53;;;;;;;18.87;3.63;;;24.00;90.30;;;;;;4934697;29;20190;-75
2022/03/03 06:05:29;;;;;;;17.63;3.93;;;24.10;88.20;;;;;;4935534;29;20179;-77
2022/03/03 06:08:06;;;;;;;24.23;3.60;;;25.10;85.00;;;;;;4931848;29;20176;-75
2022/03/03 06:10:34;;;;;;;18.27;4.37;;;26.20;81.00;;;;;;4933321;29;20199;-77
2022/03/03 06:13:12;;;;;;;22.93;4.13;;;26.50;80.10;;;;;;4933729;29;20199;-80
2022/03/03 06:15:42;;;;;;;19.10;4.53;;;26.20;80.70;;;;;;4933744;29;20266;-76
2022/03/03 06:18:10;;;;;;;20.30;4.47;;;25.50;83.40;;;;;;4932716;29;20257;-77
2022/03/03 06:20:38;;;;;;;28.50;5.37;;;25.60;83.30;;;;;;4934243;29;20247;-80
2022/03/03 06:23:05;;;;;;;28.33;5.77;;;25.80;83.20;;;;;;4936169;29;20219;-75
2022/03/03 06:25:33;;;;;;;23.57;5.13;;;26.50;79.70;;;;;;4935216;29;20226;-78
2022/03/03 06:28:00;;;;;;;26.20;5.17;;;26.00;81.30;;;;;;4933842;29;20184;-76
2022/03/03 06:30:29;;;;;;;28.07;6.30;;;25.40;81.90;;;;;;4934000;29;20203;-81
2022/03/03 06:32:56;;;;;;;30.00;4.97;;;25.10;83.00;;;;;;4935348;29;20195;-81
2022/03/03 06:35:23;;;;;;;22.10;3.97;;;24.30;86.20;;;;;;4935408;29;20767;-74
2022/03/03 06:37:50;;;;;;;27.87;4.83;;;23.70;88.10;;;;;;4921838;29;20211;-76
2022/03/03 06:40:18;;;;;;;25.43;4.50;;;23.50;89.00;;;;;;4935036;29;20201;-76
2022/03/03 06:42:45;;;;;;;26.00;4.27;;;23.40;89.70;;;;;;4935235;29;20204;-73
2022/03/03 06:45:13;;;;;;;21.73;4.53;;;23.60;90.00;;;;;;4935542;29;20187;-75
2022/03/03 06:47:40;;;;;;;29.70;5.20;;;23.80;89.40;;;;;;4933830;29;20241;-73
2022/03/03 06:50:08;;;;;;;26.50;4.83;;;23.80;88.70;;;;;;4935094;29;20180;-75
2022/03/03 06:52:36;;;;;;;25.80;5.00;;;23.80;89.30;;;;;;4928885;29;20467;-75
2022/03/03 06:55:05;;;;;;;31.47;5.10;;;23.90;89.10;;;;;;4934470;29;20188;-77
2022/03/03 06:57:35;;;;;;;25.17;4.47;;;23.90;88.00;;;;;;4930904;29;20220;-73
2022/03/03 07:00:04;;;;;;;24.97;4.47;;;24.10;88.30;;;;;;4933590;29;20191;-76
2022/03/03 07:02:33;;;;;;;23.20;4.43;;;24.70;86.00;;;;;;4930823;29;20215;-72
2022/03/03 07:05:02;;;;;;;21.40;4.70;;;24.60;85.10;;;;;;4932551;29;20188;-73
2022/03/03 07:07:31;;;;;;;35.63;6.33;;;24.40;85.40;;;;;;4932051;29;20266;-76
2022/03/03 07:09:58;;;;;;;25.00;4.93;;;24.30;85.80;;;;;;4934747;29;20664;-79
2022/03/03 07:12:28;;;;;;;32.77;5.57;;;24.20;86.00;;;;;;4932876;29;20669;-74
2022/03/03 07:14:55;;;;;;;23.07;4.50;;;24.10;86.00;;;;;;4932873;29;20180;-75
2022/03/03 07:17:55;;;;;;;24.63;4.80;;;24.20;85.50;;;;;;4934868;29;20214;-72
2022/03/03 07:21:00;;;;;;;23.90;4.90;;;24.00;85.70;;;;;;4929822;29;20701;-73
2022/03/03 07:23:36;;;;;;;21.40;3.93;;;23.80;86.50;;;;;;4929563;29;20184;-74
2022/03/03 07:26:08;;;;;;;20.00;4.00;;;23.70;86.80;;;;;;4926901;29;20179;-74
2022/03/03 07:28:38;;;;;;;19.03;3.87;;;23.60;86.80;;;;;;4932159;29;20230;-74
2022/03/03 07:31:07;;;;;;;28.40;5.13;;;23.60;87.00;;;;;;4928778;29;20195;-73
2022/03/03 07:33:51;;;;;;;24.20;4.30;;;23.60;87.50;;;;;;4931669;29;20519;-75
2022/03/03 07:36:24;;;;;;;23.73;4.97;;;23.60;87.80;;;;;;4933859;29;20192;-75
2022/03/03 07:39:00;;;;;;;24.13;4.17;;;23.70;88.10;;;;;;4929858;29;20210;-74
2022/03/03 07:41:29;;;;;;;20.57;3.87;;;23.80;87.60;;;;;;4931574;29;20179;-74
2022/03/03 07:43:58;;;;;;;23.07;4.97;;;24.10;86.30;;;;;;4931643;29;20215;-75
2022/03/03 07:46:26;;;;;;;19.03;4.50;;;24.10;85.90;;;;;;4933448;29;20272;-76
2022/03/03 07:48:55;;;;;;;18.40;4.20;;;24.00;86.60;;;;;;4933424;29;20196;-73
2022/03/03 07:51:25;;;;;;;24.60;5.03;;;24.10;86.70;;;;;;4935275;29;20246;-75
2022/03/03 07:53:53;;;;;;;20.80;3.83;;;24.00;85.90;;;;;;4934504;29;20184;-75
2022/03/03 07:56:31;;;;;;;20.03;3.40;;;23.90;85.90;;;;;;4932446;29;20220;-74
2022/03/03 07:59:10;;;;;;;17.10;4.03;;;23.80;85.90;;;;;;4933271;29;20196;-75
2022/03/03 08:01:38;;;;;;;25.83;4.13;;;23.80;86.00;;;;;;4932865;29;20192;-75
2022/03/03 08:04:05;;;;;;;23.13;4.00;;;23.70;86.90;;;;;;4934445;29;20188;-74
2022/03/03 08:06:33;;;;;;;18.10;4.27;;;23.70;86.90;;;;;;4933843;29;20183;-76
2022/03/03 08:09:02;;;;;;;26.47;5.33;;;23.70;87.20;;;;;;4928322;29;20180;-75
2022/03/03 08:11:33;;;;;;;21.60;4.17;;;23.70;87.90;;;;;;4934523;29;20180;-74
2022/03/03 08:14:00;;;;;;;26.63;4.43;;;23.50;88.90;;;;;;4917896;29;20198;-76
2022/03/03 08:16:28;;;;;;;18.03;3.80;;;23.30;89.50;;;;;;4934035;29;20188;-75
2022/03/03 08:19:00;;;;;;;18.13;4.57;;;23.20;90.00;;;;;;4933041;29;20198;-77
2022/03/03 08:21:29;;;;;;;20.77;4.20;;;23.10;90.60;;;;;;4933080;29;20176;-79
2022/03/03 08:24:02;;;;;;;32.63;5.20;;;23.00;90.80;;;;;;4944348;29;20557;-78
2022/03/03 10:07:10;;;;;;;22.93;3.97;;;21.90;94.20;;;;;;5086996;27;21144;-73
2022/03/03 10:09:59;;;;;;;19.07;4.50;;;21.80;95.00;;;;;;5068051;28;20604;-74
2022/03/03 10:12:30;;;;;;;19.90;3.47;;;21.80;94.90;;;;;;5065450;28;20642;-74
2022/03/03 10:14:58;;;;;;;16.97;5.40;;;21.70;94.50;;;;;;5049514;28;20638;-73
2022/03/03 10:17:38;;;;;;;12.80;4.80;;;21.70;94.70;;;;;;5064198;28;20225;-73
2022/03/03 10:20:07;;;;;;;15.90;4.30;;;21.70;94.90;;;;;;5069845;28;20183;-76
2022/03/03 10:22:57;;;;;;;15.63;4.00;;;21.60;94.80;;;;;;5065165;28;20583;-74
2022/03/03 10:25:42;;;;;;;20.83;4.47;;;21.60;95.10;;;;;;5051168;28;20207;-75
2022/03/03 10:28:20;;;;;;;22.23;5.53;;;21.60;95.10;;;;;;5053516;28;20171;-74
2022/03/03 10:31:09;;;;;;;24.30;5.47;;;21.70;95.30;;;;;;5068644;28;20677;-75
2022/03/03 10:33:47;;;;;;;26.00;6.03;;;21.80;95.50;;;;;;5051799;28;20172;-76
2022/03/03 10:36:19;;;;;;;19.70;4.90;;;21.80;95.60;;;;;;5048961;28;20209;-73
2022/03/03 10:38:51;;;;;;;19.23;4.83;;;21.80;95.40;;;;;;5054588;28;20202;-77
2022/03/03 10:41:40;;;;;;;20.30;5.10;;;21.80;95.40;;;;;;5068919;28;20183;-74
2022/03/03 10:44:13;;;;;;;20.87;5.20;;;21.80;95.50;;;;;;5063080;28;20176;-73
2022/03/03 10:47:02;;;;;;;24.90;6.10;;;21.70;95.60;;;;;;5048435;28;20227;-76
2022/03/03 10:49:31;;;;;;;29.97;6.17;;;21.70;95.60;;;;;;5048745;28;20180;-74
2022/03/03 10:52:17;;;;;;;18.23;5.40;;;21.70;95.80;;;;;;5048446;28;20165;-75
2022/03/03 10:54:58;;;;;;;23.67;5.83;;;21.70;95.70;;;;;;5063300;28;20262;-76
2022/03/03 10:57:35;;;;;;;28.27;5.73;;;21.80;95.70;;;;;;5067068;28;20679;-75
2022/03/03 11:00:06;;;;;;;23.40;6.33;;;21.80;95.70;;;;;;5069041;28;20661;-75
2022/03/03 11:02:35;;;;;;;22.67;6.00;;;21.70;95.60;;;;;;5075053;28;20167;-75
2022/03/03 11:05:03;;;;;;;31.73;6.17;;;21.80;95.60;;;;;;5070407;28;20231;-75
2022/03/03 11:07:31;;;;;;;35.47;6.07;;;21.70;95.60;;;;;;5054870;28;20203;-75
2022/03/03 11:09:59;;;;;;;25.67;6.20;;;21.70;95.60;;;;;;5058953;28;20376;-75
2022/03/03 11:12:27;;;;;;;26.37;7.07;;;21.80;95.70;;;;;;5059013;28;20278;-74
2022/03/03 11:14:56;;;;;;;32.23;7.77;;;21.80;95.80;;;;;;5056699;28;20278;-74
2022/03/03 11:17:24;;;;;;;29.63;7.93;;;21.80;95.80;;;;;;5054470;28;20308;-76
2022/03/03 11:19:55;;;;;;;39.03;8.47;;;21.80;95.80;;;;;;5053955;28;20203;-75
2022/03/03 11:22:22;;;;;;;47.20;8.17;;;21.80;96.00;;;;;;5041126;28;20267;-77
2022/03/03 11:24:51;;;;;;;33.47;7.63;;;21.90;95.80;;;;;;5052682;28;20212;-74
2022/03/03 11:27:19;;;;;;;39.97;7.87;;;21.90;95.80;;;;;;5054250;28;20199;-76
2022/03/03 11:30:22;;;;;;;33.17;7.67;;;21.80;95.80;;;;;;5046979;28;20190;-75
2022/03/03 11:33:27;;;;;;;33.87;7.97;;;21.80;95.80;;;;;;5054548;28;20179;-80
2022/03/03 11:36:08;;;;;;;38.53;8.20;;;22.00;95.80;;;;;;5054490;28;20544;-76
2022/03/03 11:39:01;;;;;;;37.13;7.63;;;22.00;95.60;;;;;;5043053;28;20242;-77
2022/03/03 11:41:51;;;;;;;31.37;10.07;;;22.00;95.60;;;;;;5049106;28;20188;-76
2022/03/03 11:44:35;;;;;;;39.60;13.03;;;22.00;95.80;;;;;;5040548;28;20186;-78
2022/03/03 11:47:20;;;;;;;31.33;6.57;;;22.00;95.90;;;;;;5054730;28;20646;-75
2022/03/03 11:50:06;;;;;;;34.73;7.00;;;22.00;95.90;;;;;;5051418;28;20212;-76
2022/03/03 11:52:36;;;;;;;46.40;8.17;;;22.00;95.90;;;;;;5037267;28;20180;-73
2022/03/03 11:55:24;;;;;;;42.47;7.77;;;22.00;95.90;;;;;;5034531;28;20185;-75
2022/03/03 11:57:54;;;;;;;35.43;7.50;;;22.00;95.90;;;;;;5042209;28;20297;-76
2022/03/03 12:00:22;;;;;;;42.20;8.17;;;22.10;96.00;;;;;;5052523;28;20176;-75
2022/03/03 12:03:04;;;;;;;33.77;7.67;;;22.00;96.00;;;;;;5054103;28;20179;-74
2022/03/03 12:05:33;;;;;;;30.80;7.33;;;22.00;96.00;;;;;;5037761;28;20662;-76
2022/03/03 12:08:03;;;;;;;68.33;39.77;;;22.00;96.10;;;;;;5033747;28;20545;-79
2022/03/03 12:10:32;;;;;;;32.13;9.53;;;22.00;96.10;;;;;;5034786;28;20175;-76
2022/03/03 12:13:28;;;;;;;30.67;9.17;;;21.90;96.00;;;;;;5034483;28;20196;-77
2022/03/03 12:16:34;;;;;;;25.53;7.30;;;21.90;96.10;;;;;;5049984;28;20176;-79
2022/03/03 12:19:03;;;;;;;30.90;6.53;;;21.80;96.10;;;;;;5051987;28;20641;-79
2022/03/03 12:21:45;;;;;;;28.73;6.97;;;21.90;96.10;;;;;;5054246;28;20688;-78
2022/03/03 12:24:17;;;;;;;37.33;7.33;;;21.90;96.20;;;;;;5042897;28;20185;-77
2022/03/03 12:29:33;;;;;;;35.20;8.07;;;21.80;96.20;;;;;;5040969;28;20185;-76
2022/03/03 12:32:26;;;;;;;38.23;7.53;;;21.80;96.20;;;;;;5034145;28;20173;-76
2022/03/03 12:34:55;;;;;;;30.93;11.17;;;21.80;96.10;;;;;;5041391;28;21027;-74
2022/03/03 12:37:23;;;;;;;36.03;10.90;;;21.80;95.80;;;;;;5053574;28;20184;-75
2022/03/03 12:39:50;;;;;;;40.27;9.07;;;21.80;95.60;;;;;;5053642;28;20255;-75
2022/03/03 12:42:22;;;;;;;35.53;8.33;;;21.80;95.60;;;;;;5048501;28;20232;-75
2022/03/03 12:45:03;;;;;;;35.83;7.90;;;21.90;95.60;;;;;;5053473;28;20196;-74
2022/03/03 12:47:41;;;;;;;35.17;8.17;;;21.90;95.50;;;;;;5049691;28;20195;-74
2022/03/03 12:50:15;;;;;;;35.13;7.77;;;21.90;95.60;;;;;;5033723;28;20176;-73
2022/03/03 12:52:54;;;;;;;27.43;7.03;;;21.90;95.60;;;;;;5033576;28;20180;-76
2022/03/03 12:55:28;;;;;;;33.37;7.63;;;21.90;95.50;;;;;;5036235;28;20183;-76
2022/03/03 12:57:57;;;;;;;41.77;8.40;;;21.90;95.50;;;;;;5053378;28;20160;-76
2022/03/03 13:00:25;;;;;;;31.57;7.83;;;21.90;95.60;;;;;;5046991;28;20200;-78
2022/03/03 13:02:58;;;;;;;38.93;7.57;;;21.90;95.70;;;;;;5050732;28;20172;-76
2022/03/03 13:05:48;;;;;;;27.80;7.27;;;21.80;95.80;;;;;;5050785;28;20751;-76
2022/03/03 13:08:29;;;;;;;26.30;7.40;;;21.80;96.10;;;;;;5050313;28;20181;-82
2022/03/03 13:10:59;;;;;;;32.10;7.37;;;21.70;96.30;;;;;;5050104;28;20184;-84
2022/03/03 13:13:27;;;;;;;30.67;8.03;;;21.70;96.60;;;;;;5049417;28;20607;-81
2022/03/03 13:15:54;;;;;;;37.77;7.83;;;21.70;96.60;;;;;;5046916;28;20176;-77
2022/03/03 13:18:24;;;;;;;33.03;8.27;;;21.70;96.70;;;;;;5051962;28;20229;-81
2022/03/03 13:20:58;;;;;;;30.83;7.53;;;21.70;96.70;;;;;;5051836;28;20271;-76
2022/03/03 13:23:28;;;;;;;41.70;8.63;;;21.70;96.60;;;;;;5046064;28;20575;-76
2022/03/03 13:26:09;;;;;;;32.43;8.37;;;21.80;96.60;;;;;;5051129;28;20221;-76
2022/03/03 13:28:46;;;;;;;32.53;8.30;;;21.80;96.50;;;;;;5048292;28;20230;-76
2022/03/03 13:31:17;;;;;;;48.60;9.90;;;21.80;96.50;;;;;;5050429;28;20176;-75
2022/03/03 13:33:59;;;;;;;56.70;9.80;;;21.80;96.50;;;;;;5052274;28;20179;-75
2022/03/03 13:36:29;;;;;;;42.93;8.57;;;21.80;96.50;;;;;;5048584;28;20184;-76
2022/03/03 13:39:00;;;;;;;32.40;9.03;;;21.90;96.50;;;;;;5051869;28;20191;-80
2022/03/03 13:41:34;;;;;;;42.87;10.00;;;21.90;96.50;;;;;;5050781;28;20301;-78
2022/03/03 13:44:24;;;;;;;37.37;10.30;;;21.90;96.40;;;;;;5045345;28;20182;-82
2022/03/03 13:47:00;;;;;;;27.63;7.37;;;21.90;96.20;;;;;;5044550;28;20231;-77
2022/03/03 13:49:33;;;;;;;28.07;7.80;;;21.80;96.10;;;;;;5049802;28;20655;-79
2022/03/03 13:52:09;;;;;;;21.17;7.17;;;21.80;96.10;;;;;;5051097;28;20273;-75
2022/03/03 13:55:01;;;;;;;34.90;8.47;;;21.80;96.10;;;;;;5050579;28;20664;-78
2022/03/03 13:57:45;;;;;;;37.63;9.10;;;21.80;96.00;;;;;;5046917;28;20665;-78
2022/03/03 14:00:29;;;;;;;26.13;8.10;;;21.70;96.00;;;;;;5051777;28;20638;-77
2022/03/03 14:03:15;;;;;;;25.03;7.33;;;21.70;96.00;;;;;;5066333;28;20187;-75
2022/03/03 14:05:52;;;;;;;31.27;7.93;;;21.70;95.90;;;;;;5051621;28;20322;-79
2022/03/03 14:08:25;;;;;;;35.10;8.00;;;21.60;96.00;;;;;;5049774;28;20262;-75
2022/03/03 14:10:56;;;;;;;32.63;8.43;;;21.70;96.10;;;;;;5049659;28;20218;-78
2022/03/03 14:13:29;;;;;;;41.37;9.23;;;21.70;96.10;;;;;;5042592;28;20199;-76
2022/03/03 14:15:58;;;;;;;32.43;8.03;;;21.70;96.10;;;;;;5045020;28;20191;-76
2022/03/03 14:18:28;;;;;;;36.63;9.53;;;21.70;96.20;;;;;;5048758;28;20187;-75
2022/03/03 14:20:56;;;;;;;35.30;9.57;;;21.70;96.30;;;;;;5050729;28;20184;-73
2022/03/03 14:23:27;;;;;;;46.30;9.70;;;21.70;96.50;;;;;;5046298;28;20529;-74
2022/03/03 14:25:56;;;;;;;59.63;11.93;;;21.80;96.50;;;;;;5050782;28;20215;-74
2022/03/03 14:28:24;;;;;;;44.93;10.80;;;21.80;96.50;;;;;;5051145;28;20233;-75
2022/03/03 14:30:52;;;;;;;44.83;10.23;;;21.80;96.40;;;;;;5051184;28;20184;-74
2022/03/03 14:33:19;;;;;;;59.53;11.50;;;21.80;96.40;;;;;;5046852;28;20220;-75
2022/03/03 14:35:47;;;;;;;60.90;11.27;;;21.80;96.50;;;;;;5050784;28;20541;-73
2022/03/03 14:38:16;;;;;;;47.47;10.33;;;21.90;96.60;;;;;;5051138;28;20176;-76